• Join FlightAware (Why Join?)
  • Login
  • US Flag 
08:10AM EST


 

Airport Tracker/Info


-or-


 

Live Flight TrackerFlight Track Log ✈ JBU736 ✈ 09-Oct-2013 ✈ KLGB - KSFO

Flight Track Log - Related Links

Times and Time Zones

All times are in EDT time to prevent confusion due to time zone crossing. See the JBU736 flight status page for this flight to view local times or setup timezone preferences in your user account.

Time Position Orientation Groundspeed Altitude Reporting Facility
EDT Latitude Longitude Course Direction KTS MPH feet Rate Location/Type
10:03AM 33.8500 -118.1833 304° West 170 196 1,800  Level Southern California TRACON
10:04AM 33.8500 -118.2667 270° West 222 255 4,200 2,160 Climbing Southern California TRACON
10:06AM 34.1037 -118.4506 289° West  Level Estimated
10:07AM 34.1032 -118.5648 270° West  Level FlightAware Approximate
10:08AM 34.1754 -118.6386 304° West  Level Estimated
10:10AM 33.8020 -118.7700 270° West 100 115 17,400  Level FlightAware
10:10AM 33.8200 -118.7990 307° West 100 115 18,100 1,380 Climbing FlightAware
10:11AM 33.8710 -118.8670 312° West 356 410 19,300 720 Climbing FlightAware
10:12AM 33.9060 -118.9110 314° West 356 410 19,300  Level FlightAware
10:13AM 33.9400 -118.9560 312° West 356 410 19,300  Level FlightAware
10:13AM 33.9750 -119.0000 314° West 356 410 19,300  Level FlightAware
10:14AM 34.0080 -119.0430 313° West 356 410 19,300  Level FlightAware
10:14AM 34.0420 -119.0880 312° West 356 410 19,300 3,600 Level FlightAware
10:17AM 34.2880 -119.4530 309° West 356 410 31,900 3,600 Climbing FlightAware
10:18AM 34.3220 -119.5010 311° West 356 410 31,900  Level FlightAware
10:19AM 34.3550 -119.5470 311° West 356 410 31,900 1,620 Level FlightAware
10:19AM 34.4170 -119.6380 310° West 373 429 34,200 1,680 Climbing FlightAware
10:20AM 34.4500 -119.6850 310° West 373 429 34,200 1,020 Level FlightAware
10:21AM 34.4960 -119.7520 310° West 369 425 35,500 1,020 Climbing FlightAware
10:21AM 34.5500 -119.8190 314° West 379 436 35,800 180 Climbing FlightAware
10:22AM 34.5880 -119.8670 314° West 379 436 35,800 900 Level FlightAware
10:23AM 34.6530 -119.9270 323° Northwest 379 436 36,900 960 Climbing FlightAware
10:23AM 34.7130 -119.9900 319° Northwest 388 447 37,200 180 Climbing FlightAware
10:24AM 34.7520 -120.0320 319° Northwest 388 447 37,200  Level FlightAware
10:25AM 34.7960 -120.0780 319° Northwest 388 447 37,200  Level FlightAware
10:25AM 34.8350 -120.1200 319° Northwest 388 447 37,200  Level FlightAware
10:26AM 34.8760 -120.1640 319° Northwest 388 447 37,200  Level FlightAware
10:26AM 34.9200 -120.2100 319° Northwest 388 447 37,200  Level FlightAware
10:27AM 34.9620 -120.2540 319° Northwest 388 447 37,200  Level FlightAware
10:28AM 35.0040 -120.2990 319° Northwest 388 447 37,200  Level FlightAware
10:28AM 35.0470 -120.3440 319° Northwest 388 447 37,200  Level FlightAware
10:29AM 35.0880 -120.3880 319° Northwest 388 447 37,200  Level FlightAware
10:29AM 35.1310 -120.4340 319° Northwest 388 447 37,200  Level FlightAware
10:30AM 35.1720 -120.4780 319° Northwest 388 447 37,200  Level FlightAware
10:31AM 35.2140 -120.5220 319° Northwest 388 447 37,200  Level FlightAware
10:31AM 35.2560 -120.5670 319° Northwest 388 447 37,200  Level FlightAware
10:32AM 35.2990 -120.6120 320° Northwest 388 447 37,200  Level FlightAware
10:33AM 35.3420 -120.6580 319° Northwest 388 447 37,200 540 Level FlightAware
10:33AM 35.5369 -120.9081 319° Northwest 377 434 38,000 420 Climbing Oakland Center
10:34AM 35.6119 -120.9931 317° Northwest 370 426 38,000  Level Oakland Center
10:35AM 35.6875 -121.0764 318° Northwest 366 421 38,000 -360 Level Oakland Center
10:36AM 35.7611 -121.1608 317° Northwest 363 418 37,300 -840 Descending Oakland Center
10:37AM 35.8339 -121.2408 318° Northwest 355 409 36,300 -960 Descending Oakland Center
10:38AM 35.9125 -121.3089 325° Northwest 349 402 35,400 -960 Descending Oakland Center
10:39AM 35.9964 -121.3739 328° Northwest 353 406 34,400 -960 Descending Oakland Center
10:40AM 36.0803 -121.4389 328° Northwest 355 409 33,500 -960 Descending Oakland Center
10:41AM 36.1636 -121.5025 328° Northwest 353 406 32,500 -1,140 Descending Oakland Center
10:42AM 36.2631 -121.5789 328° Northwest 351 404 31,300 -1,320 Descending Oakland Center
10:43AM 36.3447 -121.6450 327° Northwest 352 405 29,900 -1,200 Descending Oakland Center
10:44AM 36.4261 -121.7083 328° Northwest 347 399 28,900 -1,380 Descending Oakland Center
10:45AM 36.5031 -121.7703 327° Northwest 334 384 27,100 -1,980 Descending Oakland Center
10:47AM 36.5733 -121.8264 327° Northwest 330 380 24,900 -2,160 Descending Oakland Center
10:48AM 36.6478 -121.8853 328° Northwest 322 371 22,800 -2,400 Descending Oakland Center
10:49AM 36.7389 -121.9569 328° Northwest 322 371 20,100 -1,440 Descending Oakland Center
10:50AM 36.8333 -121.9833 347° North 293 337 19,700 -960 Descending Northern Cal TRACON
10:51AM 36.9011 -122.0042 346° North 295 339 18,200 -1,920 Descending Oakland Center
10:52AM 36.9778 -122.0256 347° North 286 329 16,200 -1,920 Descending Oakland Center
10:53AM 37.0564 -122.0469 348° North 288 331 14,300 -1,980 Descending Oakland Center
10:54AM 37.1308 -122.0797 341° North 295 339 12,200 -1,680 Descending Oakland Center
10:55AM 37.1633 -122.1686 295° West 285 328 10,900 -840 Descending Oakland Center
10:56AM 37.1892 -122.2492 292° West 256 295 10,500 -840 Descending Oakland Center
10:57AM 37.2233 -122.3131 304° West 238 274 9,300 -1,260 Descending Oakland Center
10:58AM 37.2786 -122.3436 336° Northwest 226 260 8,000 -1,320 Descending Oakland Center
10:59AM 37.3353 -122.3781 334° Northwest 227 261 6,700 -1,080 Descending Oakland Center
11:00AM 37.3825 -122.3364 35° Northeast 251 289 5,900 -420 Descending Oakland Center
11:01AM 37.3747 -122.2531 97° East 241 277 5,900  Level Oakland Center
11:02AM 37.3678 -122.1703 96° East 239 275 5,900 120 Level Oakland Center
11:02AM 37.4000 -122.1167 53° Northeast 233 268 6,100 -360 Climbing Northern Cal TRACON
11:03AM 37.4500 -122.0833 28° Northeast 225 259 5,400 -960 Descending Northern Cal TRACON
11:04AM 37.5000 -122.1167 332° Northwest 228 262 4,300 -1,140 Descending Northern Cal TRACON
11:05AM 37.5114 -122.1431 299° West 225 259 3,800 -1,080 Descending Oakland Center
11:06AM 37.5475 -122.2036 307° West 220 253 2,700 -1,020 Descending Oakland Center
11:07AM 37.5706 -122.2614 297° West 202 232 1,800 -840 Descending Oakland Center
11:08AM 37.5875 -122.3011 298° West 156 180 1,000 -720 Descending Oakland Center
11:09AM 37.6042 -122.3411 298° West 139 160 400 -420 Descending Oakland Center
11:10AM 37.6242 -122.3869 299° West 135 155 200 -240 Descending Oakland Center
11:12AM 37.6167 -122.3667 322° Northwest  Level FlightAware Approximate